This is the latest recevied weather packets stored in our database for station/object KF0TNT. If no packets are shown the sender has not sent any weather packets the latest 1 day(s).
| Time | Temp. | Humidity | Pressure | Rain* | Wind** | Luminosity | Snow |
|---|---|---|---|---|---|---|---|
| 1778101359 | -0.56° C | 85% | 1020.4 hPa | 0 mm | - | 151 W/m² | - |
| 1778100752 | -1.11° C | 86% | 1020.2 hPa | 0 mm | - | 102 W/m² | - |
| 1778100449 | -1.11° C | 86% | 1020 hPa | 0 mm | - | 91 W/m² | - |
| 1778100146 | -1.11° C | 87% | 1020.5 hPa | 0 mm | - | 87 W/m² | - |
| 1778099845 | -1.11° C | 87% | 1020.4 hPa | 0 mm | - | 83 W/m² | - |
| 1778097115 | 0° C | 85% | 1019.7 hPa | 0 mm | - | 203 W/m² | - |
| 1778096813 | 0° C | 83% | 1020 hPa | 0 mm | - | 292 W/m² | - |
| 1778095296 | -1.11° C | 87% | 1020 hPa | 0 mm | - | 90 W/m² | - |
| 1778094387 | -0.56° C | 87% | 1019.9 hPa | 0 mm | - | 96 W/m² | - |
| 1778093476 | -1.11° C | 89% | 1019.9 hPa | 0 mm | - | 73 W/m² | - |
| 1778092568 | 0° C | 85% | 1019.9 hPa | 0 mm | - | 105 W/m² | - |
| 1778092264 | 0° C | 82% | 1019.9 hPa | 0 mm | - | 181 W/m² | - |
| 1778091053 | 0° C | 84% | 1020.2 hPa | 0 mm | - | 144 W/m² | - |
| 1778088628 | -0.56° C | 85% | 1020.1 hPa | 0 mm | - | 75 W/m² | - |
| 1778088326 | -0.56° C | 85% | 1019.9 hPa | 0 mm | - | 70 W/m² | - |
| 1778086812 | -1.11° C | 89% | 1019.4 hPa | 0 mm | - | 75 W/m² | - |
| 1778086206 | -1.67° C | 90% | 1019.7 hPa | 0 mm | - | 54 W/m² | - |
| 1778084990 | -2.22° C | 91% | 1019.4 hPa | 0 mm | - | 40 W/m² | - |
| 1778084083 | -2.22° C | 92% | 1019 hPa | 0 mm | - | 37 W/m² | - |
| 1778082867 | -2.22° C | 90% | 1019 hPa | 0 mm | - | 36 W/m² | - |
| 1778081446 | -2.22° C | 89% | 1018.7 hPa | 0 mm | - | 50 W/m² | - |
| 1778081143 | -2.22° C | 90% | 1018.7 hPa | 0 mm | - | 45 W/m² | - |
| 1778080841 | -2.22° C | 89% | 1018.5 hPa | 0 mm | - | 48 W/m² | - |
| 1778080236 | -2.22° C | 90% | 1018.7 hPa | 0 mm | - | 48 W/m² | - |
| 1778079023 | -2.22° C | 91% | 1018.2 hPa | 0 mm | - | 49 W/m² | - |
* Rain latest hour (hover to see other rain measurements)
** Current wind speed in m/s (hover to see current wind gust speed)